sensor_id;sensor_type;location;lat;lon;timestamp;P1;durP1;ratioP1;P2;durP2;ratioP2
5898;SDS011;2975;50.956;6.962;2023-04-24T00:01:41;1.00;;;0.90;;
5898;SDS011;2975;50.956;6.962;2023-04-24T00:04:07;1.70;;;0.90;;
5898;SDS011;2975;50.956;6.962;2023-04-24T00:06:36;0.70;;;0.70;;
5898;SDS011;2975;50.956;6.962;2023-04-24T00:09:02;0.93;;;0.87;;
5898;SDS011;2975;50.956;6.962;2023-04-24T00:11:28;1.93;;;1.00;;
5898;SDS011;2975;50.956;6.962;2023-04-24T00:13:54;0.93;;;0.83;;
5898;SDS011;2975;50.956;6.962;2023-04-24T00:16:21;1.10;;;0.90;;
5898;SDS011;2975;50.956;6.962;2023-04-24T00:18:46;0.80;;;0.80;;
5898;SDS011;2975;50.956;6.962;2023-04-24T00:21:13;2.47;;;0.90;;
5898;SDS011;2975;50.956;6.962;2023-04-24T00:23:39;0.97;;;0.90;;
5898;SDS011;2975;50.956;6.962;2023-04-24T00:26:05;1.23;;;0.97;;
5898;SDS011;2975;50.956;6.962;2023-04-24T00:28:31;0.83;;;0.83;;
5898;SDS011;2975;50.956;6.962;2023-04-24T00:30:56;3.00;;;1.13;;
5898;SDS011;2975;50.956;6.962;2023-04-24T00:33:22;1.23;;;0.90;;
5898;SDS011;2975;50.956;6.962;2023-04-24T00:35:48;1.30;;;0.63;;
5898;SDS011;2975;50.956;6.962;2023-04-24T00:38:13;1.80;;;0.83;;
5898;SDS011;2975;50.956;6.962;2023-04-24T00:40:39;0.87;;;0.87;;
5898;SDS011;2975;50.956;6.962;2023-04-24T00:43:04;2.43;;;0.73;;
5898;SDS011;2975;50.956;6.962;2023-04-24T00:45:30;1.27;;;1.17;;
5898;SDS011;2975;50.956;6.962;2023-04-24T00:47:56;1.47;;;0.90;;
5898;SDS011;2975;50.956;6.962;2023-04-24T00:50:22;1.10;;;1.00;;
5898;SDS011;2975;50.956;6.962;2023-04-24T00:52:48;1.37;;;0.90;;
5898;SDS011;2975;50.956;6.962;2023-04-24T00:55:14;1.90;;;0.90;;
5898;SDS011;2975;50.956;6.962;2023-04-24T00:57:40;0.70;;;0.70;;
5898;SDS011;2975;50.956;6.962;2023-04-24T01:00:06;1.60;;;0.70;;
5898;SDS011;2975;50.956;6.962;2023-04-24T01:02:35;1.03;;;1.00;;
5898;SDS011;2975;50.956;6.962;2023-04-24T01:05:05;1.27;;;0.80;;
5898;SDS011;2975;50.956;6.962;2023-04-24T01:07:33;3.03;;;1.03;;
5898;SDS011;2975;50.956;6.962;2023-04-24T01:09:59;1.20;;;1.10;;
5898;SDS011;2975;50.956;6.962;2023-04-24T01:12:25;1.10;;;1.00;;
5898;SDS011;2975;50.956;6.962;2023-04-24T01:14:50;0.87;;;0.87;;
5898;SDS011;2975;50.956;6.962;2023-04-24T01:17:16;0.80;;;0.80;;
5898;SDS011;2975;50.956;6.962;2023-04-24T01:19:42;1.03;;;0.80;;
5898;SDS011;2975;50.956;6.962;2023-04-24T01:22:13;1.10;;;1.00;;
5898;SDS011;2975;50.956;6.962;2023-04-24T01:24:39;1.03;;;1.00;;
5898;SDS011;2975;50.956;6.962;2023-04-24T01:27:05;1.33;;;1.00;;
5898;SDS011;2975;50.956;6.962;2023-04-24T01:29:31;2.43;;;1.10;;
5898;SDS011;2975;50.956;6.962;2023-04-24T01:31:57;1.90;;;1.33;;
5898;SDS011;2975;50.956;6.962;2023-04-24T01:34:23;1.57;;;1.10;;
5898;SDS011;2975;50.956;6.962;2023-04-24T01:36:49;1.23;;;1.20;;
5898;SDS011;2975;50.956;6.962;2023-04-24T01:39:15;1.73;;;1.60;;
5898;SDS011;2975;50.956;6.962;2023-04-24T01:41:41;2.70;;;2.03;;
5898;SDS011;2975;50.956;6.962;2023-04-24T01:44:07;2.83;;;2.10;;
5898;SDS011;2975;50.956;6.962;2023-04-24T01:46:33;3.83;;;1.73;;
5898;SDS011;2975;50.956;6.962;2023-04-24T01:49:00;4.07;;;2.10;;
5898;SDS011;2975;50.956;6.962;2023-04-24T01:51:26;3.73;;;2.13;;
5898;SDS011;2975;50.956;6.962;2023-04-24T01:53:52;3.70;;;2.50;;
5898;SDS011;2975;50.956;6.962;2023-04-24T01:56:19;2.20;;;2.00;;
5898;SDS011;2975;50.956;6.962;2023-04-24T01:58:45;3.20;;;2.20;;
5898;SDS011;2975;50.956;6.962;2023-04-24T02:01:15;2.73;;;2.27;;
5898;SDS011;2975;50.956;6.962;2023-04-24T02:03:43;2.93;;;2.30;;
5898;SDS011;2975;50.956;6.962;2023-04-24T02:06:09;4.07;;;2.40;;
5898;SDS011;2975;50.956;6.962;2023-04-24T02:08:35;4.20;;;2.67;;
5898;SDS011;2975;50.956;6.962;2023-04-24T02:11:00;4.50;;;2.70;;
5898;SDS011;2975;50.956;6.962;2023-04-24T02:13:27;4.23;;;2.70;;
5898;SDS011;2975;50.956;6.962;2023-04-24T02:15:53;4.27;;;2.43;;
5898;SDS011;2975;50.956;6.962;2023-04-24T02:18:18;4.57;;;2.43;;
5898;SDS011;2975;50.956;6.962;2023-04-24T02:20:44;4.30;;;2.83;;
5898;SDS011;2975;50.956;6.962;2023-04-24T02:23:10;5.23;;;3.33;;
5898;SDS011;2975;50.956;6.962;2023-04-24T02:25:36;3.33;;;2.63;;
5898;SDS011;2975;50.956;6.962;2023-04-24T02:28:02;3.87;;;3.10;;
5898;SDS011;2975;50.956;6.962;2023-04-24T02:30:27;6.13;;;3.20;;
5898;SDS011;2975;50.956;6.962;2023-04-24T02:32:53;4.93;;;2.97;;
5898;SDS011;2975;50.956;6.962;2023-04-24T02:35:19;5.03;;;2.70;;
5898;SDS011;2975;50.956;6.962;2023-04-24T02:37:45;4.87;;;3.37;;
5898;SDS011;2975;50.956;6.962;2023-04-24T02:40:10;3.60;;;2.70;;
5898;SDS011;2975;50.956;6.962;2023-04-24T02:42:36;3.67;;;2.97;;
5898;SDS011;2975;50.956;6.962;2023-04-24T02:45:02;4.33;;;3.10;;
5898;SDS011;2975;50.956;6.962;2023-04-24T02:47:28;4.47;;;3.30;;
5898;SDS011;2975;50.956;6.962;2023-04-24T02:49:54;3.90;;;3.43;;
5898;SDS011;2975;50.956;6.962;2023-04-24T02:52:19;5.30;;;3.20;;
5898;SDS011;2975;50.956;6.962;2023-04-24T02:54:45;3.77;;;3.30;;
5898;SDS011;2975;50.956;6.962;2023-04-24T02:57:11;4.00;;;3.20;;
5898;SDS011;2975;50.956;6.962;2023-04-24T02:59:36;4.13;;;3.10;;
5898;SDS011;2975;50.956;6.962;2023-04-24T03:02:02;5.50;;;3.40;;
5898;SDS011;2975;50.956;6.962;2023-04-24T03:04:28;4.47;;;3.53;;
5898;SDS011;2975;50.956;6.962;2023-04-24T03:06:53;4.97;;;3.67;;
5898;SDS011;2975;50.956;6.962;2023-04-24T03:09:20;5.53;;;3.63;;
5898;SDS011;2975;50.956;6.962;2023-04-24T03:11:46;6.83;;;3.90;;
5898;SDS011;2975;50.956;6.962;2023-04-24T03:14:13;5.53;;;3.80;;
5898;SDS011;2975;50.956;6.962;2023-04-24T03:16:39;4.83;;;3.37;;
5898;SDS011;2975;50.956;6.962;2023-04-24T03:19:04;7.03;;;3.90;;
5898;SDS011;2975;50.956;6.962;2023-04-24T03:21:30;6.43;;;4.10;;
5898;SDS011;2975;50.956;6.962;2023-04-24T03:23:56;5.30;;;4.17;;
5898;SDS011;2975;50.956;6.962;2023-04-24T03:26:21;5.60;;;4.10;;
5898;SDS011;2975;50.956;6.962;2023-04-24T03:28:47;8.77;;;4.40;;
5898;SDS011;2975;50.956;6.962;2023-04-24T03:31:12;7.00;;;4.33;;
5898;SDS011;2975;50.956;6.962;2023-04-24T03:33:38;6.20;;;4.40;;
5898;SDS011;2975;50.956;6.962;2023-04-24T03:36:03;6.37;;;4.40;;
5898;SDS011;2975;50.956;6.962;2023-04-24T03:38:30;6.50;;;4.10;;
5898;SDS011;2975;50.956;6.962;2023-04-24T03:40:55;9.57;;;4.47;;
5898;SDS011;2975;50.956;6.962;2023-04-24T03:43:21;7.70;;;4.13;;
5898;SDS011;2975;50.956;6.962;2023-04-24T03:45:46;5.73;;;4.33;;
5898;SDS011;2975;50.956;6.962;2023-04-24T03:48:12;5.17;;;4.33;;
5898;SDS011;2975;50.956;6.962;2023-04-24T03:50:37;6.57;;;4.37;;
5898;SDS011;2975;50.956;6.962;2023-04-24T03:53:03;5.23;;;4.13;;
5898;SDS011;2975;50.956;6.962;2023-04-24T03:55:29;6.60;;;4.13;;
5898;SDS011;2975;50.956;6.962;2023-04-24T03:57:54;6.23;;;4.07;;
5898;SDS011;2975;50.956;6.962;2023-04-24T04:00:20;5.63;;;3.87;;
5898;SDS011;2975;50.956;6.962;2023-04-24T04:02:46;5.73;;;4.30;;
5898;SDS011;2975;50.956;6.962;2023-04-24T04:05:11;7.83;;;4.00;;
5898;SDS011;2975;50.956;6.962;2023-04-24T04:07:37;7.27;;;4.10;;
5898;SDS011;2975;50.956;6.962;2023-04-24T04:10:03;6.37;;;4.60;;
5898;SDS011;2975;50.956;6.962;2023-04-24T04:12:31;7.07;;;4.50;;
5898;SDS011;2975;50.956;6.962;2023-04-24T04:14:57;5.53;;;4.00;;
5898;SDS011;2975;50.956;6.962;2023-04-24T04:17:23;6.13;;;4.10;;
5898;SDS011;2975;50.956;6.962;2023-04-24T04:19:48;5.90;;;4.17;;
5898;SDS011;2975;50.956;6.962;2023-04-24T04:22:14;5.50;;;3.90;;
5898;SDS011;2975;50.956;6.962;2023-04-24T04:24:40;6.57;;;4.17;;
5898;SDS011;2975;50.956;6.962;2023-04-24T04:27:06;4.63;;;3.70;;
5898;SDS011;2975;50.956;6.962;2023-04-24T04:29:33;6.47;;;3.87;;
5898;SDS011;2975;50.956;6.962;2023-04-24T04:31:59;5.37;;;4.20;;
5898;SDS011;2975;50.956;6.962;2023-04-24T04:34:26;8.07;;;4.10;;
5898;SDS011;2975;50.956;6.962;2023-04-24T04:36:51;5.30;;;3.90;;
5898;SDS011;2975;50.956;6.962;2023-04-24T04:39:17;5.03;;;4.00;;
5898;SDS011;2975;50.956;6.962;2023-04-24T04:41:43;6.07;;;3.93;;
5898;SDS011;2975;50.956;6.962;2023-04-24T04:44:11;4.63;;;3.90;;
5898;SDS011;2975;50.956;6.962;2023-04-24T04:46:37;4.23;;;3.57;;
5898;SDS011;2975;50.956;6.962;2023-04-24T04:49:03;5.10;;;3.70;;
5898;SDS011;2975;50.956;6.962;2023-04-24T04:51:29;5.83;;;4.20;;
5898;SDS011;2975;50.956;6.962;2023-04-24T04:53:55;6.87;;;3.87;;
5898;SDS011;2975;50.956;6.962;2023-04-24T04:56:21;4.43;;;3.80;;
5898;SDS011;2975;50.956;6.962;2023-04-24T04:58:47;4.70;;;4.00;;
5898;SDS011;2975;50.956;6.962;2023-04-24T05:01:12;4.67;;;4.10;;
5898;SDS011;2975;50.956;6.962;2023-04-24T05:03:38;4.67;;;3.77;;
5898;SDS011;2975;50.956;6.962;2023-04-24T05:06:04;5.13;;;3.53;;
5898;SDS011;2975;50.956;6.962;2023-04-24T05:08:30;6.43;;;3.80;;
5898;SDS011;2975;50.956;6.962;2023-04-24T05:10:55;7.20;;;4.03;;
5898;SDS011;2975;50.956;6.962;2023-04-24T05:13:21;6.57;;;3.90;;
5898;SDS011;2975;50.956;6.962;2023-04-24T05:15:46;8.33;;;3.60;;
5898;SDS011;2975;50.956;6.962;2023-04-24T05:18:12;4.60;;;3.70;;
5898;SDS011;2975;50.956;6.962;2023-04-24T05:20:38;5.93;;;3.43;;
5898;SDS011;2975;50.956;6.962;2023-04-24T05:23:03;5.93;;;3.50;;
5898;SDS011;2975;50.956;6.962;2023-04-24T05:25:29;4.63;;;3.60;;
5898;SDS011;2975;50.956;6.962;2023-04-24T05:27:55;7.03;;;3.70;;
5898;SDS011;2975;50.956;6.962;2023-04-24T05:30:20;7.37;;;4.17;;
5898;SDS011;2975;50.956;6.962;2023-04-24T05:32:46;6.80;;;3.87;;
5898;SDS011;2975;50.956;6.962;2023-04-24T05:35:12;8.40;;;3.93;;
5898;SDS011;2975;50.956;6.962;2023-04-24T05:37:37;5.70;;;3.90;;
5898;SDS011;2975;50.956;6.962;2023-04-24T05:40:03;4.17;;;3.43;;
5898;SDS011;2975;50.956;6.962;2023-04-24T05:42:30;4.90;;;3.20;;
5898;SDS011;2975;50.956;6.962;2023-04-24T05:44:56;4.63;;;3.70;;
5898;SDS011;2975;50.956;6.962;2023-04-24T05:47:22;5.23;;;3.70;;
5898;SDS011;2975;50.956;6.962;2023-04-24T05:49:47;5.93;;;3.50;;
5898;SDS011;2975;50.956;6.962;2023-04-24T05:52:13;5.17;;;3.80;;
5898;SDS011;2975;50.956;6.962;2023-04-24T05:54:39;5.77;;;3.80;;
5898;SDS011;2975;50.956;6.962;2023-04-24T05:57:04;4.20;;;3.80;;
5898;SDS011;2975;50.956;6.962;2023-04-24T05:59:33;8.23;;;3.97;;
5898;SDS011;2975;50.956;6.962;2023-04-24T06:01:59;5.27;;;3.60;;
5898;SDS011;2975;50.956;6.962;2023-04-24T06:04:25;7.90;;;3.60;;
5898;SDS011;2975;50.956;6.962;2023-04-24T06:06:50;6.13;;;4.33;;
5898;SDS011;2975;50.956;6.962;2023-04-24T06:09:20;7.93;;;4.60;;
5898;SDS011;2975;50.956;6.962;2023-04-24T06:11:47;8.07;;;3.47;;
5898;SDS011;2975;50.956;6.962;2023-04-24T06:14:12;4.60;;;3.00;;
5898;SDS011;2975;50.956;6.962;2023-04-24T06:16:39;3.13;;;2.47;;
5898;SDS011;2975;50.956;6.962;2023-04-24T06:19:07;4.47;;;2.33;;
5898;SDS011;2975;50.956;6.962;2023-04-24T06:21:33;6.03;;;2.07;;
5898;SDS011;2975;50.956;6.962;2023-04-24T06:23:58;3.20;;;2.60;;
5898;SDS011;2975;50.956;6.962;2023-04-24T06:26:24;4.40;;;2.60;;
5898;SDS011;2975;50.956;6.962;2023-04-24T06:28:51;4.17;;;2.80;;
5898;SDS011;2975;50.956;6.962;2023-04-24T06:31:19;2.67;;;2.27;;
5898;SDS011;2975;50.956;6.962;2023-04-24T06:33:45;7.23;;;3.17;;
5898;SDS011;2975;50.956;6.962;2023-04-24T06:36:11;5.40;;;2.37;;
5898;SDS011;2975;50.956;6.962;2023-04-24T06:38:37;3.03;;;2.10;;
5898;SDS011;2975;50.956;6.962;2023-04-24T06:41:02;2.33;;;2.10;;
5898;SDS011;2975;50.956;6.962;2023-04-24T06:43:30;1.87;;;1.53;;
5898;SDS011;2975;50.956;6.962;2023-04-24T06:45:59;1.53;;;1.43;;
5898;SDS011;2975;50.956;6.962;2023-04-24T06:48:25;2.37;;;1.77;;
5898;SDS011;2975;50.956;6.962;2023-04-24T06:50:51;2.60;;;1.73;;
5898;SDS011;2975;50.956;6.962;2023-04-24T06:53:17;1.90;;;1.70;;
5898;SDS011;2975;50.956;6.962;2023-04-24T06:55:43;1.40;;;1.27;;
5898;SDS011;2975;50.956;6.962;2023-04-24T06:58:10;1.60;;;1.50;;
5898;SDS011;2975;50.956;6.962;2023-04-24T07:00:36;1.30;;;1.20;;
5898;SDS011;2975;50.956;6.962;2023-04-24T07:03:02;2.73;;;1.77;;
5898;SDS011;2975;50.956;6.962;2023-04-24T07:05:30;1.47;;;1.37;;
5898;SDS011;2975;50.956;6.962;2023-04-24T07:07:55;3.30;;;1.43;;
5898;SDS011;2975;50.956;6.962;2023-04-24T07:10:23;1.93;;;1.50;;
5898;SDS011;2975;50.956;6.962;2023-04-24T07:12:49;1.47;;;1.37;;
5898;SDS011;2975;50.956;6.962;2023-04-24T07:15:15;1.40;;;1.30;;
5898;SDS011;2975;50.956;6.962;2023-04-24T07:17:41;2.43;;;1.30;;
5898;SDS011;2975;50.956;6.962;2023-04-24T07:20:09;1.47;;;1.37;;
5898;SDS011;2975;50.956;6.962;2023-04-24T07:22:35;4.10;;;1.87;;
5898;SDS011;2975;50.956;6.962;2023-04-24T07:25:02;1.17;;;1.10;;
5898;SDS011;2975;50.956;6.962;2023-04-24T07:27:28;3.47;;;1.50;;
5898;SDS011;2975;50.956;6.962;2023-04-24T07:29:54;2.43;;;1.40;;
5898;SDS011;2975;50.956;6.962;2023-04-24T07:32:19;1.63;;;1.40;;
5898;SDS011;2975;50.956;6.962;2023-04-24T07:34:45;1.70;;;1.33;;
5898;SDS011;2975;50.956;6.962;2023-04-24T07:37:11;2.33;;;1.20;;
5898;SDS011;2975;50.956;6.962;2023-04-24T07:39:36;1.33;;;1.03;;
5898;SDS011;2975;50.956;6.962;2023-04-24T07:42:02;1.57;;;1.00;;
5898;SDS011;2975;50.956;6.962;2023-04-24T07:44:28;1.90;;;1.13;;
5898;SDS011;2975;50.956;6.962;2023-04-24T07:46:54;1.00;;;1.00;;
5898;SDS011;2975;50.956;6.962;2023-04-24T07:49:20;2.23;;;1.00;;
5898;SDS011;2975;50.956;6.962;2023-04-24T07:51:46;1.40;;;0.80;;
5898;SDS011;2975;50.956;6.962;2023-04-24T07:54:12;1.40;;;1.00;;
5898;SDS011;2975;50.956;6.962;2023-04-24T07:56:38;0.80;;;0.80;;
5898;SDS011;2975;50.956;6.962;2023-04-24T07:59:04;3.37;;;0.97;;
5898;SDS011;2975;50.956;6.962;2023-04-24T08:01:30;1.77;;;0.93;;
5898;SDS011;2975;50.956;6.962;2023-04-24T08:03:55;0.90;;;0.90;;
5898;SDS011;2975;50.956;6.962;2023-04-24T08:06:21;2.37;;;0.70;;
5898;SDS011;2975;50.956;6.962;2023-04-24T08:08:47;1.27;;;0.90;;
5898;SDS011;2975;50.956;6.962;2023-04-24T08:11:13;2.07;;;1.00;;
5898;SDS011;2975;50.956;6.962;2023-04-24T08:13:38;1.27;;;1.10;;
5898;SDS011;2975;50.956;6.962;2023-04-24T08:16:04;2.00;;;1.07;;
5898;SDS011;2975;50.956;6.962;2023-04-24T08:18:30;1.80;;;1.13;;
5898;SDS011;2975;50.956;6.962;2023-04-24T08:20:55;1.77;;;1.00;;
5898;SDS011;2975;50.956;6.962;2023-04-24T08:23:26;0.80;;;0.80;;
5898;SDS011;2975;50.956;6.962;2023-04-24T08:25:52;1.00;;;1.00;;
5898;SDS011;2975;50.956;6.962;2023-04-24T08:28:17;1.77;;;1.10;;
5898;SDS011;2975;50.956;6.962;2023-04-24T08:30:45;1.20;;;0.90;;
5898;SDS011;2975;50.956;6.962;2023-04-24T08:33:12;1.93;;;0.87;;
5898;SDS011;2975;50.956;6.962;2023-04-24T08:35:37;1.37;;;0.93;;
5898;SDS011;2975;50.956;6.962;2023-04-24T08:38:04;2.10;;;0.90;;
5898;SDS011;2975;50.956;6.962;2023-04-24T08:40:29;1.10;;;1.10;;
5898;SDS011;2975;50.956;6.962;2023-04-24T08:42:59;1.07;;;0.80;;
5898;SDS011;2975;50.956;6.962;2023-04-24T08:45:25;1.90;;;0.90;;
5898;SDS011;2975;50.956;6.962;2023-04-24T08:47:51;2.20;;;1.00;;
5898;SDS011;2975;50.956;6.962;2023-04-24T08:50:19;1.70;;;0.87;;
5898;SDS011;2975;50.956;6.962;2023-04-24T08:52:45;3.13;;;1.00;;
5898;SDS011;2975;50.956;6.962;2023-04-24T08:55:14;3.10;;;1.20;;
5898;SDS011;2975;50.956;6.962;2023-04-24T08:57:43;0.97;;;0.97;;
5898;SDS011;2975;50.956;6.962;2023-04-24T09:00:10;6.83;;;1.40;;
5898;SDS011;2975;50.956;6.962;2023-04-24T09:02:36;2.23;;;1.93;;
5898;SDS011;2975;50.956;6.962;2023-04-24T09:05:04;1.83;;;1.50;;
5898;SDS011;2975;50.956;6.962;2023-04-24T09:07:31;4.27;;;1.60;;
5898;SDS011;2975;50.956;6.962;2023-04-24T09:10:01;2.83;;;1.90;;
5898;SDS011;2975;50.956;6.962;2023-04-24T09:12:27;1.93;;;1.73;;
5898;SDS011;2975;50.956;6.962;2023-04-24T09:14:53;3.60;;;2.20;;
5898;SDS011;2975;50.956;6.962;2023-04-24T09:17:20;3.27;;;2.17;;
5898;SDS011;2975;50.956;6.962;2023-04-24T09:19:47;3.17;;;2.53;;
5898;SDS011;2975;50.956;6.962;2023-04-24T09:22:13;3.33;;;3.00;;
5898;SDS011;2975;50.956;6.962;2023-04-24T09:24:39;5.23;;;2.43;;
5898;SDS011;2975;50.956;6.962;2023-04-24T09:27:05;5.47;;;3.10;;
5898;SDS011;2975;50.956;6.962;2023-04-24T09:29:32;3.27;;;2.60;;
5898;SDS011;2975;50.956;6.962;2023-04-24T09:31:58;7.70;;;3.00;;
5898;SDS011;2975;50.956;6.962;2023-04-24T09:34:25;6.07;;;3.23;;
5898;SDS011;2975;50.956;6.962;2023-04-24T09:36:52;4.33;;;3.10;;
5898;SDS011;2975;50.956;6.962;2023-04-24T09:39:18;6.43;;;3.07;;
5898;SDS011;2975;50.956;6.962;2023-04-24T09:41:54;5.33;;;3.73;;
5898;SDS011;2975;50.956;6.962;2023-04-24T09:44:24;6.10;;;3.70;;
5898;SDS011;2975;50.956;6.962;2023-04-24T09:46:51;3.60;;;3.30;;
5898;SDS011;2975;50.956;6.962;2023-04-24T09:49:25;5.53;;;3.50;;
5898;SDS011;2975;50.956;6.962;2023-04-24T09:52:02;7.60;;;3.97;;
5898;SDS011;2975;50.956;6.962;2023-04-24T09:54:28;9.63;;;3.60;;
5898;SDS011;2975;50.956;6.962;2023-04-24T09:56:54;5.07;;;3.53;;
5898;SDS011;2975;50.956;6.962;2023-04-24T09:59:21;8.67;;;3.53;;
5898;SDS011;2975;50.956;6.962;2023-04-24T10:01:47;5.57;;;4.07;;
5898;SDS011;2975;50.956;6.962;2023-04-24T10:06:50;5.17;;;3.33;;
5898;SDS011;2975;50.956;6.962;2023-04-24T10:09:17;5.43;;;3.53;;
5898;SDS011;2975;50.956;6.962;2023-04-24T10:11:45;7.63;;;3.67;;
5898;SDS011;2975;50.956;6.962;2023-04-24T10:14:13;5.63;;;3.23;;
5898;SDS011;2975;50.956;6.962;2023-04-24T10:16:40;9.00;;;3.00;;
5898;SDS011;2975;50.956;6.962;2023-04-24T10:19:06;3.63;;;2.43;;
5898;SDS011;2975;50.956;6.962;2023-04-24T10:21:32;8.73;;;3.33;;
5898;SDS011;2975;50.956;6.962;2023-04-24T10:23:59;6.13;;;2.60;;
5898;SDS011;2975;50.956;6.962;2023-04-24T10:26:28;7.53;;;2.90;;
5898;SDS011;2975;50.956;6.962;2023-04-24T10:28:54;4.70;;;2.87;;
5898;SDS011;2975;50.956;6.962;2023-04-24T10:31:22;4.37;;;2.30;;
5898;SDS011;2975;50.956;6.962;2023-04-24T10:33:49;6.53;;;2.50;;
5898;SDS011;2975;50.956;6.962;2023-04-24T10:36:16;2.93;;;2.37;;
5898;SDS011;2975;50.956;6.962;2023-04-24T10:38:42;6.27;;;2.30;;
5898;SDS011;2975;50.956;6.962;2023-04-24T10:41:12;5.10;;;2.20;;
5898;SDS011;2975;50.956;6.962;2023-04-24T10:43:44;2.73;;;2.30;;
5898;SDS011;2975;50.956;6.962;2023-04-24T10:46:10;6.93;;;2.60;;
5898;SDS011;2975;50.956;6.962;2023-04-24T10:48:44;4.13;;;2.40;;
5898;SDS011;2975;50.956;6.962;2023-04-24T10:51:21;3.80;;;2.20;;
5898;SDS011;2975;50.956;6.962;2023-04-24T10:53:49;7.60;;;2.50;;
5898;SDS011;2975;50.956;6.962;2023-04-24T10:56:16;6.70;;;2.57;;
5898;SDS011;2975;50.956;6.962;2023-04-24T10:58:43;6.77;;;2.33;;
5898;SDS011;2975;50.956;6.962;2023-04-24T11:01:23;8.00;;;2.50;;
5898;SDS011;2975;50.956;6.962;2023-04-24T11:03:54;6.80;;;2.00;;
5898;SDS011;2975;50.956;6.962;2023-04-24T11:06:36;7.50;;;2.43;;
5898;SDS011;2975;50.956;6.962;2023-04-24T11:09:03;6.20;;;2.53;;
5898;SDS011;2975;50.956;6.962;2023-04-24T11:11:31;6.87;;;2.60;;
5898;SDS011;2975;50.956;6.962;2023-04-24T11:18:52;6.30;;;3.20;;
5898;SDS011;2975;50.956;6.962;2023-04-24T11:21:24;7.17;;;2.80;;
5898;SDS011;2975;50.956;6.962;2023-04-24T11:23:51;8.80;;;3.20;;
5898;SDS011;2975;50.956;6.962;2023-04-24T11:26:17;8.43;;;2.70;;
5898;SDS011;2975;50.956;6.962;2023-04-24T11:28:49;5.93;;;2.43;;
5898;SDS011;2975;50.956;6.962;2023-04-24T11:31:36;10.90;;;3.07;;
5898;SDS011;2975;50.956;6.962;2023-04-24T11:34:09;10.83;;;2.97;;
5898;SDS011;2975;50.956;6.962;2023-04-24T11:36:37;5.87;;;2.60;;
5898;SDS011;2975;50.956;6.962;2023-04-24T11:39:03;4.40;;;2.77;;
5898;SDS011;2975;50.956;6.962;2023-04-24T11:41:29;9.73;;;2.90;;
5898;SDS011;2975;50.956;6.962;2023-04-24T11:43:55;5.70;;;2.80;;
5898;SDS011;2975;50.956;6.962;2023-04-24T11:46:22;6.60;;;2.70;;
5898;SDS011;2975;50.956;6.962;2023-04-24T11:48:48;5.87;;;2.90;;
5898;SDS011;2975;50.956;6.962;2023-04-24T11:51:14;7.67;;;2.83;;
5898;SDS011;2975;50.956;6.962;2023-04-24T11:53:39;7.30;;;3.43;;
5898;SDS011;2975;50.956;6.962;2023-04-24T11:56:05;8.07;;;3.60;;
5898;SDS011;2975;50.956;6.962;2023-04-24T11:58:37;6.80;;;3.43;;
5898;SDS011;2975;50.956;6.962;2023-04-24T12:01:03;12.03;;;4.00;;
5898;SDS011;2975;50.956;6.962;2023-04-24T12:03:30;8.33;;;3.70;;
5898;SDS011;2975;50.956;6.962;2023-04-24T12:06:05;7.03;;;3.23;;
5898;SDS011;2975;50.956;6.962;2023-04-24T12:08:32;6.63;;;3.10;;
5898;SDS011;2975;50.956;6.962;2023-04-24T12:10:59;6.73;;;3.20;;
5898;SDS011;2975;50.956;6.962;2023-04-24T12:13:26;5.30;;;3.10;;
5898;SDS011;2975;50.956;6.962;2023-04-24T12:15:52;5.57;;;2.93;;
5898;SDS011;2975;50.956;6.962;2023-04-24T12:18:17;8.20;;;2.97;;
5898;SDS011;2975;50.956;6.962;2023-04-24T12:20:43;8.23;;;3.30;;
5898;SDS011;2975;50.956;6.962;2023-04-24T12:23:09;7.83;;;3.10;;
5898;SDS011;2975;50.956;6.962;2023-04-24T12:25:34;6.63;;;3.57;;
5898;SDS011;2975;50.956;6.962;2023-04-24T12:30:29;15.00;;;2.90;;
5898;SDS011;2975;50.956;6.962;2023-04-24T12:32:57;7.37;;;3.03;;
5898;SDS011;2975;50.956;6.962;2023-04-24T12:35:24;8.93;;;3.07;;
5898;SDS011;2975;50.956;6.962;2023-04-24T12:37:51;8.03;;;3.30;;
5898;SDS011;2975;50.956;6.962;2023-04-24T12:40:17;8.77;;;3.30;;
5898;SDS011;2975;50.956;6.962;2023-04-24T12:42:45;13.17;;;4.30;;
5898;SDS011;2975;50.956;6.962;2023-04-24T12:45:16;8.83;;;2.83;;
5898;SDS011;2975;50.956;6.962;2023-04-24T12:47:43;6.87;;;2.90;;
5898;SDS011;2975;50.956;6.962;2023-04-24T12:50:10;8.70;;;2.80;;
5898;SDS011;2975;50.956;6.962;2023-04-24T12:52:41;7.47;;;3.30;;
5898;SDS011;2975;50.956;6.962;2023-04-24T12:55:07;6.43;;;2.80;;
5898;SDS011;2975;50.956;6.962;2023-04-24T12:57:34;9.03;;;3.23;;
5898;SDS011;2975;50.956;6.962;2023-04-24T13:00:00;6.33;;;2.97;;
5898;SDS011;2975;50.956;6.962;2023-04-24T13:02:27;5.93;;;2.70;;
5898;SDS011;2975;50.956;6.962;2023-04-24T13:04:56;4.93;;;2.60;;
5898;SDS011;2975;50.956;6.962;2023-04-24T13:07:26;6.37;;;3.30;;
5898;SDS011;2975;50.956;6.962;2023-04-24T13:09:52;9.03;;;3.27;;
5898;SDS011;2975;50.956;6.962;2023-04-24T13:12:19;9.40;;;3.57;;
5898;SDS011;2975;50.956;6.962;2023-04-24T13:14:45;8.83;;;3.00;;
5898;SDS011;2975;50.956;6.962;2023-04-24T13:17:11;9.10;;;3.17;;
5898;SDS011;2975;50.956;6.962;2023-04-24T13:19:40;8.57;;;2.97;;
5898;SDS011;2975;50.956;6.962;2023-04-24T13:22:08;7.70;;;3.70;;
5898;SDS011;2975;50.956;6.962;2023-04-24T13:24:34;9.00;;;2.90;;
5898;SDS011;2975;50.956;6.962;2023-04-24T13:27:00;6.60;;;3.00;;
5898;SDS011;2975;50.956;6.962;2023-04-24T13:29:26;6.33;;;2.80;;
5898;SDS011;2975;50.956;6.962;2023-04-24T13:31:52;7.97;;;3.20;;
5898;SDS011;2975;50.956;6.962;2023-04-24T13:34:22;6.67;;;3.07;;
5898;SDS011;2975;50.956;6.962;2023-04-24T13:36:49;7.10;;;3.77;;
5898;SDS011;2975;50.956;6.962;2023-04-24T13:39:16;6.23;;;2.20;;
5898;SDS011;2975;50.956;6.962;2023-04-24T13:41:42;5.90;;;3.13;;
5898;SDS011;2975;50.956;6.962;2023-04-24T13:44:07;5.07;;;2.60;;
5898;SDS011;2975;50.956;6.962;2023-04-24T13:46:33;8.20;;;3.30;;
5898;SDS011;2975;50.956;6.962;2023-04-24T13:48:59;7.20;;;2.90;;
5898;SDS011;2975;50.956;6.962;2023-04-24T13:51:26;8.50;;;3.03;;
5898;SDS011;2975;50.956;6.962;2023-04-24T13:53:52;5.63;;;2.83;;
5898;SDS011;2975;50.956;6.962;2023-04-24T13:56:18;5.53;;;2.57;;
5898;SDS011;2975;50.956;6.962;2023-04-24T13:58:43;6.53;;;2.93;;
5898;SDS011;2975;50.956;6.962;2023-04-24T14:01:09;6.33;;;2.90;;
5898;SDS011;2975;50.956;6.962;2023-04-24T14:03:35;5.50;;;3.00;;
5898;SDS011;2975;50.956;6.962;2023-04-24T14:06:02;5.97;;;2.07;;
5898;SDS011;2975;50.956;6.962;2023-04-24T14:08:28;10.07;;;2.50;;
5898;SDS011;2975;50.956;6.962;2023-04-24T14:10:53;5.93;;;2.40;;
5898;SDS011;2975;50.956;6.962;2023-04-24T14:13:19;7.50;;;3.10;;
5898;SDS011;2975;50.956;6.962;2023-04-24T14:15:45;7.97;;;2.80;;
5898;SDS011;2975;50.956;6.962;2023-04-24T14:18:11;9.23;;;2.40;;
5898;SDS011;2975;50.956;6.962;2023-04-24T14:20:37;5.77;;;2.23;;
5898;SDS011;2975;50.956;6.962;2023-04-24T14:23:03;5.63;;;2.60;;
5898;SDS011;2975;50.956;6.962;2023-04-24T14:25:29;6.80;;;2.70;;
5898;SDS011;2975;50.956;6.962;2023-04-24T14:27:55;7.63;;;3.10;;
5898;SDS011;2975;50.956;6.962;2023-04-24T14:30:21;4.80;;;2.50;;
5898;SDS011;2975;50.956;6.962;2023-04-24T14:32:46;5.57;;;2.67;;
5898;SDS011;2975;50.956;6.962;2023-04-24T14:35:12;6.20;;;3.10;;
5898;SDS011;2975;50.956;6.962;2023-04-24T14:37:39;8.40;;;3.00;;
5898;SDS011;2975;50.956;6.962;2023-04-24T14:40:06;5.90;;;2.90;;
5898;SDS011;2975;50.956;6.962;2023-04-24T14:42:33;6.47;;;2.60;;
5898;SDS011;2975;50.956;6.962;2023-04-24T14:44:59;5.13;;;2.43;;
5898;SDS011;2975;50.956;6.962;2023-04-24T14:47:24;4.67;;;2.83;;
5898;SDS011;2975;50.956;6.962;2023-04-24T14:49:50;6.90;;;2.73;;
5898;SDS011;2975;50.956;6.962;2023-04-24T14:52:16;5.10;;;2.83;;
5898;SDS011;2975;50.956;6.962;2023-04-24T14:54:42;7.10;;;2.90;;
5898;SDS011;2975;50.956;6.962;2023-04-24T14:57:08;7.00;;;3.07;;
5898;SDS011;2975;50.956;6.962;2023-04-24T14:59:34;5.53;;;2.70;;
5898;SDS011;2975;50.956;6.962;2023-04-24T15:01:59;8.27;;;2.70;;
5898;SDS011;2975;50.956;6.962;2023-04-24T15:04:25;7.10;;;2.60;;
5898;SDS011;2975;50.956;6.962;2023-04-24T15:06:51;6.67;;;2.80;;
5898;SDS011;2975;50.956;6.962;2023-04-24T15:09:18;4.63;;;2.50;;
5898;SDS011;2975;50.956;6.962;2023-04-24T15:11:44;10.60;;;2.63;;
5898;SDS011;2975;50.956;6.962;2023-04-24T15:14:10;6.97;;;2.73;;
5898;SDS011;2975;50.956;6.962;2023-04-24T15:16:36;5.17;;;2.30;;
5898;SDS011;2975;50.956;6.962;2023-04-24T15:19:01;4.40;;;2.13;;
5898;SDS011;2975;50.956;6.962;2023-04-24T15:21:27;4.47;;;2.40;;